Time;durP1;ratioP1;P1;durP2;ratioP2;P2;SDS_P1;SDS_P2;PMS_P1;PMS_P2;Temp;Humidity;BMP_temperature;BMP_pressure;BME280_temperature;BME280_humidity;BME280_pressure;Samples;Min_cycle;Max_cycle;Signal;HPM_P1;HPM_P2
2023/06/05 00:00:19;;;;;;;1.20;1.10;;;14.20;61.90;;;;;;5111175;27;20636;-68
2023/06/05 00:02:46;;;;;;;2.43;1.40;;;14.20;61.30;;;;;;5111097;27;20640;-68
2023/06/05 00:05:15;;;;;;;1.60;1.50;;;14.20;60.70;;;;;;5112406;27;20618;-69
2023/06/05 00:07:42;;;;;;;1.60;1.37;;;14.20;61.00;;;;;;5114987;27;20779;-68
2023/06/05 00:10:09;;;;;;;1.20;1.00;;;14.10;60.50;;;;;;5112548;27;20624;-69
2023/06/05 00:12:36;;;;;;;2.30;1.10;;;14.10;60.30;;;;;;5122327;27;20634;-68
2023/06/05 00:15:04;;;;;;;1.63;1.53;;;14.10;61.50;;;;;;5109393;27;20635;-69
2023/06/05 00:17:31;;;;;;;1.97;1.17;;;14.10;61.00;;;;;;5110058;27;20633;-68
2023/06/05 00:19:59;;;;;;;1.33;1.13;;;14.10;61.80;;;;;;5117273;27;20722;-68
2023/06/05 00:22:28;;;;;;;1.10;0.97;;;14.00;62.40;;;;;;5115406;27;20678;-68
2023/06/05 00:24:55;;;;;;;2.20;1.43;;;13.90;64.30;;;;;;5116718;27;20615;-68
2023/06/05 00:27:21;;;;;;;1.20;1.10;;;14.00;63.40;;;;;;5118382;27;21237;-68
2023/06/05 00:29:49;;;;;;;1.47;1.37;;;13.90;63.80;;;;;;5119549;27;21067;-68
2023/06/05 00:32:16;;;;;;;2.03;1.13;;;13.90;63.00;;;;;;5116475;27;20677;-68
2023/06/05 00:34:43;;;;;;;1.73;1.27;;;13.80;62.20;;;;;;5119649;27;21234;-68
2023/06/05 00:37:11;;;;;;;1.27;1.23;;;13.80;60.80;;;;;;5121153;27;20756;-68
2023/06/05 00:39:39;;;;;;;2.40;1.63;;;13.90;60.60;;;;;;5113322;27;20632;-68
2023/06/05 00:42:08;;;;;;;1.93;1.37;;;13.70;60.20;;;;;;5115138;27;21334;-68
2023/06/05 00:44:34;;;;;;;1.57;1.47;;;13.70;59.60;;;;;;5114473;27;21205;-68
2023/06/05 00:47:02;;;;;;;2.20;1.47;;;13.70;60.60;;;;;;5111114;28;20691;-68
2023/06/05 00:49:30;;;;;;;2.30;1.60;;;13.60;60.90;;;;;;5116240;28;21167;-68
2023/06/05 00:51:58;;;;;;;2.03;1.07;;;13.60;61.20;;;;;;5117506;27;20643;-68
2023/06/05 00:54:25;;;;;;;1.27;1.17;;;13.60;61.00;;;;;;5113931;28;20623;-68
2023/06/05 00:56:53;;;;;;;1.20;1.10;;;13.70;61.60;;;;;;5107634;28;20655;-68
2023/06/05 00:59:21;;;;;;;0.93;0.80;;;13.70;62.60;;;;;;5117858;28;20617;-68
2023/06/05 01:01:47;;;;;;;1.43;1.33;;;13.60;60.90;;;;;;5105422;28;20715;-68
2023/06/05 01:04:14;;;;;;;1.53;1.20;;;13.50;62.90;;;;;;5115794;28;20638;-68
2023/06/05 01:06:41;;;;;;;1.53;1.37;;;13.40;61.70;;;;;;5115643;28;20703;-68
2023/06/05 01:09:10;;;;;;;1.03;0.90;;;13.40;60.00;;;;;;5109990;28;20615;-68
2023/06/05 01:11:42;;;;;;;1.20;1.10;;;13.30;59.80;;;;;;5120377;28;21208;-68
2023/06/05 01:14:17;;;;;;;1.30;1.20;;;13.30;60.00;;;;;;5100574;28;20617;-68
2023/06/05 01:16:50;;;;;;;1.10;0.80;;;13.30;59.70;;;;;;5101148;28;21175;-68
2023/06/05 01:19:18;;;;;;;1.50;1.40;;;13.20;59.80;;;;;;5106374;28;20728;-68
2023/06/05 01:21:45;;;;;;;1.43;1.33;;;13.20;60.30;;;;;;5111982;27;20644;-69
2023/06/05 01:24:15;;;;;;;1.80;1.23;;;13.20;61.20;;;;;;5118168;28;20719;-69
2023/06/05 01:27:00;;;;;;;1.07;0.97;;;13.20;61.10;;;;;;5118132;27;20670;-68
2023/06/05 01:29:33;;;;;;;5.90;1.57;;;13.10;60.50;;;;;;5113983;27;20627;-68
2023/06/05 01:32:07;;;;;;;1.57;1.47;;;13.20;61.90;;;;;;5114606;27;20661;-68
2023/06/05 01:34:35;;;;;;;1.60;1.30;;;13.10;63.40;;;;;;5112544;27;20618;-69
2023/06/05 01:37:04;;;;;;;2.30;1.70;;;13.10;63.80;;;;;;5119790;27;20651;-68
2023/06/05 01:39:33;;;;;;;1.27;1.17;;;13.20;64.30;;;;;;5104694;27;21057;-68
2023/06/05 01:42:01;;;;;;;2.13;1.20;;;13.20;64.30;;;;;;5117996;27;20678;-68
2023/06/05 01:44:28;;;;;;;1.67;1.57;;;13.20;65.30;;;;;;5109426;27;20642;-68
2023/06/05 01:46:56;;;;;;;2.03;1.77;;;13.20;66.60;;;;;;5117301;27;20687;-68
2023/06/05 01:49:23;;;;;;;2.17;1.50;;;13.20;66.70;;;;;;5109202;27;20615;-68
2023/06/05 01:51:51;;;;;;;1.93;1.57;;;13.10;67.90;;;;;;5122249;27;20648;-68
2023/06/05 01:54:18;;;;;;;1.80;1.70;;;13.10;68.80;;;;;;5105314;27;20620;-68
2023/06/05 01:56:49;;;;;;;1.33;1.23;;;13.10;65.60;;;;;;5121843;27;20659;-68
2023/06/05 01:59:16;;;;;;;2.83;1.93;;;13.10;65.50;;;;;;5116345;27;20729;-68
2023/06/05 02:01:44;;;;;;;1.20;1.10;;;13.10;63.20;;;;;;5112916;27;20745;-68
2023/06/05 02:04:16;;;;;;;1.37;1.10;;;13.10;62.80;;;;;;5110446;27;20614;-69
2023/06/05 02:06:43;;;;;;;1.63;1.20;;;13.00;62.40;;;;;;5112523;27;20655;-68
2023/06/05 02:09:12;;;;;;;2.23;1.67;;;12.90;65.20;;;;;;5109290;27;20622;-68
2023/06/05 02:11:42;;;;;;;2.10;1.50;;;12.90;62.70;;;;;;5122082;27;20669;-68
2023/06/05 02:14:13;;;;;;;1.27;1.13;;;12.90;62.40;;;;;;5115728;27;20730;-68
2023/06/05 02:16:41;;;;;;;2.10;1.90;;;12.90;61.70;;;;;;5119138;27;20739;-68
2023/06/05 02:19:08;;;;;;;1.30;1.20;;;12.90;63.40;;;;;;5116786;27;20731;-68
2023/06/05 02:21:35;;;;;;;3.90;1.47;;;12.90;64.20;;;;;;5118592;27;20700;-68
2023/06/05 02:24:03;;;;;;;2.50;1.97;;;12.80;65.40;;;;;;5111905;27;20626;-68
2023/06/05 02:26:30;;;;;;;3.03;1.30;;;12.60;64.70;;;;;;5122178;27;20752;-68
2023/06/05 02:28:57;;;;;;;1.97;1.30;;;12.60;65.80;;;;;;5105803;27;20658;-68
2023/06/05 02:31:28;;;;;;;1.43;1.33;;;12.50;65.30;;;;;;5118816;27;21329;-68
2023/06/05 02:33:55;;;;;;;2.33;2.03;;;12.40;66.90;;;;;;5115238;27;20683;-69
2023/06/05 02:36:24;;;;;;;1.77;1.57;;;12.30;66.40;;;;;;5109131;27;20805;-68
2023/06/05 02:38:53;;;;;;;1.77;1.30;;;12.20;67.00;;;;;;5106339;27;20647;-68
2023/06/05 02:41:22;;;;;;;3.10;1.27;;;12.30;67.20;;;;;;5105550;27;20658;-68
2023/06/05 02:43:49;;;;;;;1.90;1.03;;;12.40;67.60;;;;;;5122952;27;20605;-68
2023/06/05 02:46:16;;;;;;;2.00;1.77;;;12.50;67.90;;;;;;5122369;27;20650;-68
2023/06/05 02:48:45;;;;;;;1.80;1.20;;;12.50;67.20;;;;;;5105447;27;21057;-68
2023/06/05 02:51:14;;;;;;;1.60;1.17;;;12.50;65.50;;;;;;5113298;27;21126;-68
2023/06/05 02:53:41;;;;;;;2.83;2.00;;;12.50;65.00;;;;;;5112348;27;20633;-69
2023/06/05 02:56:09;;;;;;;2.27;1.07;;;12.50;65.00;;;;;;5118027;27;20749;-68
2023/06/05 02:58:37;;;;;;;4.87;1.33;;;12.50;68.50;;;;;;5118503;27;20750;-68
2023/06/05 03:01:08;;;;;;;12.57;1.53;;;12.40;69.50;;;;;;5118891;27;20631;-68
2023/06/05 03:03:35;;;;;;;2.87;2.30;;;12.20;71.00;;;;;;5119986;27;20629;-68
2023/06/05 03:06:05;;;;;;;1.97;1.63;;;12.10;72.40;;;;;;5117782;27;20658;-68
2023/06/05 03:08:33;;;;;;;1.60;1.50;;;12.10;72.70;;;;;;5114231;27;20756;-69
2023/06/05 03:11:01;;;;;;;2.03;1.83;;;12.00;72.80;;;;;;5114228;27;20657;-68
2023/06/05 03:13:30;;;;;;;3.20;1.80;;;12.00;73.60;;;;;;5107716;27;21076;-69
2023/06/05 03:16:00;;;;;;;3.17;2.27;;;12.00;73.50;;;;;;5120740;27;20660;-69
2023/06/05 03:18:29;;;;;;;12.27;1.80;;;12.10;72.00;;;;;;5113785;27;20655;-68
2023/06/05 03:20:57;;;;;;;1.67;1.57;;;12.20;70.50;;;;;;5114718;27;20662;-68
2023/06/05 03:23:27;;;;;;;1.77;1.53;;;12.20;68.50;;;;;;5112470;27;20635;-68
2023/06/05 03:25:54;;;;;;;1.53;1.43;;;12.20;67.90;;;;;;5120963;27;20646;-69
2023/06/05 03:28:24;;;;;;;2.00;1.47;;;12.20;67.40;;;;;;5113253;27;20668;-69
2023/06/05 03:30:52;;;;;;;1.30;1.20;;;12.20;68.70;;;;;;5110798;27;21022;-68
2023/06/05 03:33:19;;;;;;;1.60;1.10;;;12.10;69.40;;;;;;5112349;27;20627;-68
2023/06/05 03:35:48;;;;;;;1.20;1.10;;;12.20;69.80;;;;;;5120426;27;20681;-68
2023/06/05 03:38:16;;;;;;;1.57;1.37;;;12.20;70.00;;;;;;5122345;27;20624;-69
2023/06/05 03:40:46;;;;;;;1.77;1.20;;;12.10;71.70;;;;;;5110880;27;21054;-68
2023/06/05 03:43:13;;;;;;;3.23;1.50;;;12.10;72.20;;;;;;5120405;27;20610;-68
2023/06/05 03:45:40;;;;;;;1.20;1.07;;;12.00;72.80;;;;;;5106107;27;20643;-68
2023/06/05 03:48:08;;;;;;;1.40;1.40;;;11.90;72.50;;;;;;5114488;27;20705;-68
2023/06/05 03:50:37;;;;;;;1.10;1.10;;;11.90;72.40;;;;;;5113389;27;21241;-68
2023/06/05 03:53:04;;;;;;;1.67;1.57;;;11.90;73.10;;;;;;5110423;27;20624;-68
2023/06/05 03:55:40;;;;;;;1.37;1.10;;;11.90;73.50;;;;;;5116666;27;20731;-68
2023/06/05 03:58:09;;;;;;;0.90;0.83;;;11.90;73.00;;;;;;5120374;27;20968;-68
2023/06/05 04:00:36;;;;;;;1.13;1.03;;;11.80;74.50;;;;;;5109956;27;20644;-68
2023/06/05 04:03:04;;;;;;;6.77;1.07;;;11.80;75.60;;;;;;5114414;27;20626;-68
2023/06/05 04:05:31;;;;;;;1.50;1.40;;;11.80;76.90;;;;;;5117644;27;21003;-68
2023/06/05 04:07:57;;;;;;;2.00;1.47;;;12.00;77.60;;;;;;5119972;27;20688;-69
2023/06/05 04:10:24;;;;;;;0.80;0.80;;;12.10;77.20;;;;;;5111730;27;20656;-69
2023/06/05 04:12:51;;;;;;;2.80;1.60;;;12.10;77.20;;;;;;5116914;27;20991;-69
2023/06/05 04:15:19;;;;;;;1.67;1.57;;;12.10;76.40;;;;;;5116137;27;20629;-69
2023/06/05 04:17:46;;;;;;;10.27;1.50;;;12.10;76.10;;;;;;5120982;27;20995;-68
2023/06/05 04:20:14;;;;;;;2.73;1.30;;;12.10;75.90;;;;;;5107813;27;20662;-68
2023/06/05 04:22:41;;;;;;;1.60;1.50;;;12.10;75.70;;;;;;5113198;27;20960;-68
2023/06/05 04:25:10;;;;;;;2.30;1.63;;;12.30;75.80;;;;;;5121590;27;20628;-68
2023/06/05 04:27:38;;;;;;;1.70;1.57;;;12.40;75.70;;;;;;5116477;27;21207;-68
2023/06/05 04:30:06;;;;;;;2.07;1.90;;;12.50;75.20;;;;;;5111187;27;20718;-68
2023/06/05 04:32:38;;;;;;;1.77;1.67;;;12.40;75.60;;;;;;5119377;27;20722;-68
2023/06/05 04:35:06;;;;;;;1.53;1.43;;;12.50;75.90;;;;;;5117560;27;21330;-68
2023/06/05 04:37:33;;;;;;;1.50;1.40;;;12.50;75.30;;;;;;5116786;27;20688;-69
2023/06/05 04:40:00;;;;;;;1.10;1.00;;;12.40;75.80;;;;;;5117612;27;20617;-69
2023/06/05 04:42:26;;;;;;;2.90;1.63;;;12.50;76.30;;;;;;5118522;27;20996;-70
2023/06/05 04:44:58;;;;;;;1.43;1.20;;;12.50;76.40;;;;;;5119328;27;20985;-69
2023/06/05 04:47:25;;;;;;;1.20;1.10;;;12.60;75.80;;;;;;5117701;28;20709;-68
2023/06/05 04:49:54;;;;;;;1.67;1.30;;;12.70;75.70;;;;;;5111462;28;20633;-69
2023/06/05 04:52:23;;;;;;;1.77;1.30;;;12.80;75.70;;;;;;5119789;28;20643;-69
2023/06/05 04:54:50;;;;;;;1.03;1.03;;;12.90;74.60;;;;;;5110805;28;20726;-69
2023/06/05 04:57:18;;;;;;;1.63;1.53;;;13.10;72.30;;;;;;5109129;28;21052;-71
2023/06/05 04:59:45;;;;;;;3.60;1.87;;;13.20;72.60;;;;;;5110785;28;20652;-68
2023/06/05 05:02:12;;;;;;;2.47;1.30;;;13.20;71.90;;;;;;5109616;28;20655;-68
2023/06/05 05:04:39;;;;;;;1.30;1.20;;;13.40;69.90;;;;;;5110463;28;20632;-69
2023/06/05 05:07:13;;;;;;;2.67;1.60;;;13.50;71.90;;;;;;5102900;27;20651;-70
2023/06/05 05:09:40;;;;;;;1.67;1.30;;;13.70;71.80;;;;;;5117330;27;20658;-69
2023/06/05 05:12:07;;;;;;;1.60;1.40;;;13.70;72.70;;;;;;5118642;27;20652;-70
2023/06/05 05:14:34;;;;;;;1.83;1.70;;;13.70;72.50;;;;;;5119470;27;20621;-72
2023/06/05 05:17:02;;;;;;;1.50;1.23;;;13.80;71.40;;;;;;5114892;27;20754;-72
2023/06/05 05:19:29;;;;;;;1.60;1.07;;;13.90;69.60;;;;;;5120002;27;20645;-73
2023/06/05 05:21:56;;;;;;;1.30;1.13;;;14.00;70.00;;;;;;5112412;27;20659;-71
2023/06/05 05:24:24;;;;;;;1.23;1.00;;;14.00;72.40;;;;;;5119058;27;20634;-71
2023/06/05 05:26:51;;;;;;;1.37;1.10;;;14.00;71.60;;;;;;5121589;27;20652;-71
2023/06/05 05:29:18;;;;;;;1.53;1.40;;;14.10;70.70;;;;;;5117329;27;21001;-71
2023/06/05 05:31:45;;;;;;;1.57;1.23;;;14.30;68.90;;;;;;5108627;27;20764;-71
2023/06/05 05:34:12;;;;;;;1.80;1.57;;;14.40;68.60;;;;;;5116749;27;20625;-71
2023/06/05 05:36:39;;;;;;;1.47;1.23;;;14.50;66.90;;;;;;5116958;27;20673;-71
2023/06/05 05:39:07;;;;;;;2.10;1.90;;;14.50;66.00;;;;;;5096928;27;20964;-70
2023/06/05 05:41:37;;;;;;;1.43;1.33;;;14.60;67.00;;;;;;5105780;27;20741;-71
2023/06/05 05:44:05;;;;;;;1.43;1.30;;;14.60;66.60;;;;;;5116212;27;20632;-71
2023/06/05 05:46:32;;;;;;;1.50;1.40;;;14.70;65.80;;;;;;5112335;27;21648;-71
2023/06/05 05:48:58;;;;;;;1.50;1.40;;;14.70;65.30;;;;;;5108234;27;21496;-71
2023/06/05 05:51:25;;;;;;;2.93;1.77;;;14.80;64.20;;;;;;5118116;27;20658;-71
2023/06/05 05:53:52;;;;;;;1.20;1.10;;;14.90;64.70;;;;;;5116470;27;20731;-70
2023/06/05 05:56:19;;;;;;;1.70;1.60;;;15.00;64.70;;;;;;5103025;27;20645;-70
2023/06/05 05:58:48;;;;;;;1.57;1.30;;;15.10;64.30;;;;;;5120410;27;21048;-71
2023/06/05 06:01:15;;;;;;;1.13;1.03;;;15.10;63.40;;;;;;5119454;27;20652;-71
2023/06/05 06:03:42;;;;;;;3.93;1.73;;;15.30;62.60;;;;;;5116419;27;21040;-71
2023/06/05 06:06:10;;;;;;;1.80;1.60;;;15.40;62.70;;;;;;5119755;27;20650;-71
2023/06/05 06:08:36;;;;;;;2.70;1.87;;;15.40;62.30;;;;;;5111667;27;20710;-71
2023/06/05 06:11:06;;;;;;;2.60;1.90;;;15.40;62.20;;;;;;5113336;27;20993;-71
2023/06/05 06:13:33;;;;;;;1.70;1.50;;;15.40;63.00;;;;;;5110028;27;20620;-71
2023/06/05 06:16:02;;;;;;;1.43;1.37;;;15.40;63.10;;;;;;5117464;27;20998;-71
2023/06/05 06:18:28;;;;;;;1.43;1.33;;;15.60;62.30;;;;;;5121177;27;20624;-70
2023/06/05 06:20:55;;;;;;;2.83;1.30;;;15.60;61.40;;;;;;5119420;27;20652;-71
2023/06/05 06:23:22;;;;;;;2.80;1.57;;;15.70;61.60;;;;;;5110309;27;20644;-72
2023/06/05 06:25:51;;;;;;;1.50;1.40;;;15.80;61.80;;;;;;5115092;27;20651;-71
2023/06/05 06:28:19;;;;;;;2.10;1.90;;;15.90;61.50;;;;;;5110345;27;20659;-71
2023/06/05 06:30:46;;;;;;;1.60;1.50;;;16.00;62.10;;;;;;5119025;27;20695;-71
2023/06/05 06:33:14;;;;;;;1.80;1.57;;;16.20;62.60;;;;;;5119641;27;20632;-71
2023/06/05 06:35:41;;;;;;;1.73;1.63;;;16.30;61.90;;;;;;5114195;27;20644;-70
2023/06/05 06:38:08;;;;;;;1.77;1.67;;;16.60;60.90;;;;;;5117808;27;21224;-70
2023/06/05 06:40:35;;;;;;;2.10;1.90;;;16.80;60.50;;;;;;5114502;27;20666;-71
2023/06/05 06:43:01;;;;;;;1.53;1.43;;;16.90;59.50;;;;;;5118919;27;20740;-71
2023/06/05 06:45:28;;;;;;;1.70;1.60;;;17.00;59.40;;;;;;5114494;27;21784;-71
2023/06/05 06:47:55;;;;;;;1.83;1.73;;;17.10;59.80;;;;;;5115128;27;20614;-71
2023/06/05 06:50:23;;;;;;;1.73;1.47;;;17.10;59.70;;;;;;5109458;27;20631;-70
2023/06/05 06:52:50;;;;;;;1.80;1.50;;;17.00;59.00;;;;;;5118437;27;20634;-71
2023/06/05 06:55:17;;;;;;;1.60;1.50;;;17.50;59.90;;;;;;5112392;27;20632;-71
2023/06/05 06:57:44;;;;;;;1.70;1.60;;;17.50;59.00;;;;;;5111635;27;20639;-71
2023/06/05 07:00:12;;;;;;;2.57;1.53;;;17.30;58.90;;;;;;5115472;27;20987;-71
2023/06/05 07:02:43;;;;;;;2.67;2.03;;;17.30;59.20;;;;;;5115503;27;20733;-71
2023/06/05 07:05:10;;;;;;;2.50;1.87;;;17.30;59.40;;;;;;5120017;27;20727;-71
2023/06/05 07:07:38;;;;;;;3.17;1.50;;;17.50;59.40;;;;;;5108021;27;20626;-71
2023/06/05 07:10:07;;;;;;;1.97;1.77;;;17.50;59.10;;;;;;5097202;27;21076;-71
2023/06/05 07:12:34;;;;;;;3.27;1.70;;;17.60;58.80;;;;;;5116660;27;20627;-71
2023/06/05 07:15:01;;;;;;;1.90;1.80;;;17.60;58.80;;;;;;5113596;27;20723;-71
2023/06/05 07:17:29;;;;;;;1.87;1.77;;;17.60;59.10;;;;;;5111309;27;21086;-71
2023/06/05 07:19:56;;;;;;;2.23;2.03;;;17.60;58.20;;;;;;5117395;27;20630;-71
2023/06/05 07:22:24;;;;;;;2.40;1.93;;;17.70;58.60;;;;;;5115507;27;20646;-71
2023/06/05 07:24:53;;;;;;;1.67;1.57;;;17.60;57.90;;;;;;5107662;27;20629;-71
2023/06/05 07:27:21;;;;;;;2.10;1.90;;;17.70;58.10;;;;;;5108442;27;20656;-71
2023/06/05 07:29:48;;;;;;;2.87;2.57;;;18.20;58.40;;;;;;5109906;27;20670;-72
2023/06/05 07:32:14;;;;;;;1.90;1.80;;;18.50;58.20;;;;;;5104966;27;20656;-72
2023/06/05 07:34:42;;;;;;;2.30;2.10;;;18.50;57.10;;;;;;5116341;27;20622;-71
2023/06/05 07:37:09;;;;;;;3.57;2.60;;;18.60;57.40;;;;;;5117973;27;20658;-71
2023/06/05 07:39:36;;;;;;;1.80;1.70;;;18.70;57.30;;;;;;5113734;27;20628;-71
2023/06/05 07:42:06;;;;;;;2.00;1.83;;;18.60;56.40;;;;;;5114666;27;20680;-72
2023/06/05 07:44:33;;;;;;;2.70;2.23;;;18.70;56.40;;;;;;5106553;27;20697;-72
2023/06/05 07:47:00;;;;;;;1.97;1.87;;;18.90;56.10;;;;;;5106604;27;20648;-72
2023/06/05 07:49:26;;;;;;;2.00;1.90;;;19.10;56.30;;;;;;5108908;27;21300;-72
2023/06/05 07:51:53;;;;;;;2.40;2.20;;;19.40;57.10;;;;;;5116391;27;20690;-72
2023/06/05 07:54:21;;;;;;;2.17;2.03;;;19.70;57.20;;;;;;5107066;27;20628;-72
2023/06/05 07:56:50;;;;;;;3.00;2.70;;;19.80;57.80;;;;;;5112869;27;20655;-72
2023/06/05 07:59:24;;;;;;;3.20;2.93;;;19.90;57.20;;;;;;5116888;27;21211;-72
2023/06/05 08:01:51;;;;;;;3.60;3.30;;;20.10;57.60;;;;;;5104158;27;22201;-72
2023/06/05 08:04:19;;;;;;;3.40;2.67;;;20.30;57.60;;;;;;5114226;27;21024;-72
2023/06/05 08:06:46;;;;;;;3.10;2.80;;;20.30;57.90;;;;;;5113203;27;21086;-72
2023/06/05 08:09:13;;;;;;;3.83;3.17;;;20.40;58.30;;;;;;5109899;27;20648;-72
2023/06/05 08:11:41;;;;;;;4.13;3.50;;;20.50;58.00;;;;;;5112683;27;20686;-72
2023/06/05 08:14:09;;;;;;;3.07;2.87;;;20.80;59.80;;;;;;5112736;27;20622;-72
2023/06/05 08:16:37;;;;;;;3.93;3.63;;;21.00;59.30;;;;;;5111363;27;21318;-72
2023/06/05 08:19:04;;;;;;;4.00;3.70;;;21.10;57.60;;;;;;5111550;27;20629;-72
2023/06/05 08:21:31;;;;;;;3.10;2.90;;;21.10;58.70;;;;;;5117632;27;20654;-72
2023/06/05 08:23:58;;;;;;;5.30;3.43;;;21.20;59.00;;;;;;5116995;27;20627;-72
2023/06/05 08:26:27;;;;;;;4.10;3.60;;;21.30;59.00;;;;;;5097803;27;20663;-72
2023/06/05 08:28:55;;;;;;;3.47;3.17;;;21.10;58.70;;;;;;5114804;27;20654;-72
2023/06/05 08:31:23;;;;;;;3.47;3.17;;;21.20;59.30;;;;;;5121476;27;20664;-72
2023/06/05 08:33:51;;;;;;;3.73;3.40;;;21.40;58.20;;;;;;5105759;28;20627;-72
2023/06/05 08:36:18;;;;;;;3.47;3.17;;;21.60;58.10;;;;;;5113326;27;21026;-72
2023/06/05 08:38:45;;;;;;;3.70;3.17;;;21.60;57.90;;;;;;5119172;27;20659;-72
2023/06/05 08:41:16;;;;;;;3.37;3.07;;;21.80;58.10;;;;;;5113533;27;21262;-72
2023/06/05 08:43:44;;;;;;;3.53;3.23;;;22.00;58.00;;;;;;5104454;27;20611;-72
2023/06/05 08:46:12;;;;;;;4.20;3.80;;;22.20;57.40;;;;;;5114952;27;20668;-72
2023/06/05 08:48:43;;;;;;;3.57;3.10;;;22.30;57.10;;;;;;5112855;28;20615;-70
2023/06/05 08:51:14;;;;;;;3.60;3.30;;;22.30;56.70;;;;;;5117598;28;21261;-70
2023/06/05 08:53:44;;;;;;;3.40;3.20;;;22.60;56.60;;;;;;5109313;28;20631;-70
2023/06/05 08:56:12;;;;;;;2.90;2.70;;;22.80;55.80;;;;;;5105087;28;21252;-71
2023/06/05 08:58:39;;;;;;;3.50;3.30;;;22.80;56.50;;;;;;5115491;28;20624;-71
2023/06/05 09:01:06;;;;;;;4.60;3.33;;;22.80;56.80;;;;;;5112280;28;20705;-71
2023/06/05 09:03:33;;;;;;;3.10;2.90;;;22.70;55.90;;;;;;5112242;28;21057;-71
2023/06/05 09:06:02;;;;;;;3.83;3.40;;;22.70;57.40;;;;;;5091109;28;21289;-71
2023/06/05 09:08:33;;;;;;;3.07;2.80;;;22.90;56.80;;;;;;5110838;27;20612;-71
2023/06/05 09:11:22;;;;;;;5.10;3.80;;;22.90;57.30;;;;;;5117201;27;20675;-71
2023/06/05 09:13:49;;;;;;;3.60;3.30;;;22.90;56.20;;;;;;5095759;28;20627;-71
2023/06/05 09:16:16;;;;;;;3.30;3.10;;;23.10;56.70;;;;;;5092795;28;20640;-71
2023/06/05 09:18:56;;;;;;;3.67;3.37;;;23.20;56.90;;;;;;5091914;28;20627;-71
2023/06/05 09:21:28;;;;;;;4.20;3.83;;;23.30;56.70;;;;;;5110144;28;20640;-71
2023/06/05 09:24:14;;;;;;;3.67;3.37;;;23.30;56.40;;;;;;5108881;28;20953;-71
2023/06/05 09:26:56;;;;;;;4.17;3.70;;;23.30;56.00;;;;;;5115556;27;21008;-71
2023/06/05 09:29:24;;;;;;;4.57;3.70;;;23.40;57.20;;;;;;5107086;28;20713;-71
2023/06/05 09:31:51;;;;;;;3.70;3.50;;;23.50;55.50;;;;;;5106450;28;20758;-71
2023/06/05 09:34:23;;;;;;;3.90;3.57;;;23.80;55.40;;;;;;5103693;28;21203;-71
2023/06/05 09:36:57;;;;;;;4.87;4.20;;;23.80;55.40;;;;;;5117511;28;21155;-71
2023/06/05 09:39:26;;;;;;;3.97;3.60;;;23.90;55.50;;;;;;5113960;28;20667;-71
2023/06/05 09:41:54;;;;;;;3.77;3.37;;;24.10;55.60;;;;;;5116011;28;21234;-71
2023/06/05 09:44:21;;;;;;;3.43;3.20;;;24.00;54.70;;;;;;5117160;28;20722;-71
2023/06/05 09:46:56;;;;;;;4.30;3.60;;;24.20;54.60;;;;;;5114882;27;20644;-71
2023/06/05 09:49:26;;;;;;;3.70;3.40;;;24.30;55.20;;;;;;5112453;28;20668;-71
2023/06/05 09:51:53;;;;;;;3.50;3.30;;;24.40;54.40;;;;;;5117481;28;20661;-71
2023/06/05 09:54:22;;;;;;;5.50;4.17;;;24.40;54.20;;;;;;5120365;27;20645;-72
2023/06/05 09:56:50;;;;;;;3.70;3.43;;;24.40;53.90;;;;;;5118299;27;21254;-71
2023/06/05 09:59:22;;;;;;;4.30;3.90;;;24.50;53.90;;;;;;5122922;27;21011;-71
2023/06/05 10:01:51;;;;;;;4.07;3.67;;;24.60;54.70;;;;;;5119815;27;20751;-71
2023/06/05 10:04:22;;;;;;;5.45;4.90;;;24.80;53.70;;;;;;5112589;27;20743;-72
2023/06/05 10:06:51;;;;;;;4.10;3.80;;;24.80;53.20;;;;;;5120338;27;20222;-73
2023/06/05 10:09:19;;;;;;;4.40;4.00;;;25.00;53.20;;;;;;5119670;27;20715;-73
2023/06/05 10:11:50;;;;;;;4.53;3.60;;;25.20;52.90;;;;;;5121674;27;21053;-73
2023/06/05 10:14:18;;;;;;;3.70;3.40;;;25.50;54.70;;;;;;5114919;27;20622;-73
2023/06/05 10:16:49;;;;;;;3.80;3.33;;;25.60;53.20;;;;;;5111408;27;20651;-72
2023/06/05 10:19:18;;;;;;;4.17;3.80;;;25.30;53.80;;;;;;5107660;27;21025;-73
2023/06/05 10:21:46;;;;;;;4.23;3.90;;;25.00;54.10;;;;;;5115622;27;20659;-73
2023/06/05 10:24:18;;;;;;;2.50;2.37;;;25.50;55.10;;;;;;5107134;27;21220;-73
2023/06/05 10:27:16;;;;;;;4.80;3.60;;;25.60;53.70;;;;;;5113653;27;20743;-72
2023/06/05 10:29:57;;;;;;;3.83;3.50;;;25.50;52.70;;;;;;5110844;27;20659;-73
2023/06/05 10:32:37;;;;;;;3.20;2.90;;;25.50;51.80;;;;;;5120829;27;20657;-72
2023/06/05 10:35:14;;;;;;;4.10;3.80;;;24.90;50.70;;;;;;5121530;27;20611;-72
2023/06/05 10:37:54;;;;;;;3.10;2.80;;;25.40;51.70;;;;;;5111380;27;20620;-73
2023/06/05 10:40:21;;;;;;;4.17;3.77;;;25.90;51.60;;;;;;5111171;27;20622;-73
2023/06/05 10:42:49;;;;;;;3.70;3.50;;;26.20;48.90;;;;;;5121613;27;20644;-74
2023/06/05 10:45:31;;;;;;;3.77;3.47;;;26.40;49.00;;;;;;5115908;27;20631;-72
2023/06/05 10:47:57;;;;;;;3.03;2.83;;;26.60;49.90;;;;;;5097701;28;20614;-71
2023/06/05 10:50:31;;;;;;;3.90;3.20;;;26.50;49.90;;;;;;5124066;27;20683;-69
2023/06/05 10:52:58;;;;;;;3.60;3.40;;;26.50;48.00;;;;;;5117217;27;20686;-70
2023/06/05 10:55:26;;;;;;;12.37;3.90;;;26.20;47.70;;;;;;5109357;27;20659;-69
2023/06/05 10:58:09;;;;;;;2.93;2.73;;;26.20;47.40;;;;;;5109705;27;20629;-69
2023/06/05 11:00:37;;;;;;;2.73;2.53;;;26.40;48.20;;;;;;5114798;27;20649;-69
2023/06/05 11:03:06;;;;;;;3.87;3.53;;;26.00;46.90;;;;;;5109071;27;20632;-69
2023/06/05 11:05:33;;;;;;;2.70;2.50;;;25.90;46.90;;;;;;5114351;27;20653;-69
2023/06/05 11:08:15;;;;;;;4.07;3.50;;;25.60;47.10;;;;;;5112542;27;20612;-69
2023/06/05 11:11:09;;;;;;;2.70;2.33;;;25.30;47.10;;;;;;5111732;27;20672;-69
2023/06/05 11:13:56;;;;;;;3.57;3.00;;;25.10;47.20;;;;;;5101428;27;21105;-70
2023/06/05 11:16:29;;;;;;;3.10;2.80;;;25.20;48.10;;;;;;5105170;27;20651;-70
2023/06/05 11:19:30;;;;;;;3.00;2.80;;;25.20;49.80;;;;;;5108754;27;20636;-71
2023/06/05 11:22:04;;;;;;;3.10;2.80;;;25.80;48.00;;;;;;5111862;27;20727;-70
2023/06/05 11:24:32;;;;;;;3.13;2.80;;;26.50;47.50;;;;;;5108650;27;20624;-70
2023/06/05 11:26:59;;;;;;;2.90;2.70;;;27.00;44.80;;;;;;5120362;27;20648;-70
2023/06/05 11:29:29;;;;;;;2.57;2.37;;;27.30;44.20;;;;;;5115069;27;20616;-70
2023/06/05 11:31:56;;;;;;;2.00;1.90;;;27.00;44.50;;;;;;5114703;27;20765;-69
2023/06/05 11:34:23;;;;;;;3.53;2.97;;;27.30;46.40;;;;;;5118109;27;20630;-69
2023/06/05 11:36:50;;;;;;;2.97;2.77;;;27.60;44.60;;;;;;5118034;27;21260;-69
2023/06/05 11:39:17;;;;;;;2.43;2.33;;;28.00;43.90;;;;;;5116940;27;20629;-70
2023/06/05 11:41:48;;;;;;;2.23;2.03;;;28.30;42.50;;;;;;5101538;27;20665;-69
2023/06/05 11:44:15;;;;;;;2.80;2.60;;;28.60;41.50;;;;;;5115998;27;21013;-70
2023/06/05 11:46:44;;;;;;;3.50;3.30;;;28.90;42.40;;;;;;5116865;27;20733;-69
2023/06/05 11:49:26;;;;;;;2.60;2.40;;;29.30;41.20;;;;;;5113835;27;20617;-69
2023/06/05 11:51:52;;;;;;;2.73;2.53;;;29.90;41.20;;;;;;5106542;27;20694;-69
2023/06/05 11:54:27;;;;;;;2.53;2.33;;;30.10;39.40;;;;;;5115899;27;20728;-69
2023/06/05 11:56:58;;;;;;;2.27;2.17;;;30.50;39.50;;;;;;5107166;27;20650;-69
2023/06/05 11:59:25;;;;;;;2.63;2.17;;;31.20;39.30;;;;;;5113787;27;21349;-69
2023/06/05 12:01:54;;;;;;;2.27;2.17;;;31.50;38.80;;;;;;5106353;27;20659;-69
2023/06/05 12:04:21;;;;;;;2.43;2.23;;;32.30;38.10;;;;;;5119854;27;20623;-70
2023/06/05 12:06:48;;;;;;;2.43;2.23;;;33.00;38.80;;;;;;5108089;27;20662;-69
2023/06/05 12:09:15;;;;;;;3.00;2.80;;;33.10;36.40;;;;;;5114818;27;20994;-70
2023/06/05 12:11:44;;;;;;;2.90;2.70;;;32.50;35.80;;;;;;5118876;27;21302;-69
2023/06/05 12:14:12;;;;;;;2.67;2.20;;;31.00;37.70;;;;;;5107227;27;20673;-69
2023/06/05 12:16:42;;;;;;;3.80;2.47;;;29.90;39.30;;;;;;5101079;27;20648;-70
2023/06/05 12:19:16;;;;;;;2.50;2.30;;;30.80;39.10;;;;;;5121637;27;20640;-70
2023/06/05 12:21:44;;;;;;;2.87;2.67;;;31.70;38.40;;;;;;5115539;27;21211;-70
2023/06/05 12:24:11;;;;;;;2.90;2.70;;;32.20;38.30;;;;;;5111063;27;20619;-70
2023/06/05 12:26:53;;;;;;;3.60;3.30;;;33.30;36.70;;;;;;5100358;27;20658;-70
2023/06/05 12:29:20;;;;;;;2.40;2.20;;;33.60;35.40;;;;;;5117143;27;20654;-70
2023/06/05 12:31:47;;;;;;;2.40;2.20;;;33.90;35.80;;;;;;5100858;28;20671;-70
2023/06/05 12:34:16;;;;;;;2.90;2.70;;;33.70;36.10;;;;;;5118032;27;20622;-70
2023/06/05 12:36:43;;;;;;;3.23;2.93;;;34.30;34.70;;;;;;5115038;27;20649;-70
2023/06/05 12:39:12;;;;;;;2.97;2.67;;;34.90;34.40;;;;;;5104356;27;20199;-69
2023/06/05 12:41:39;;;;;;;2.60;2.40;;;35.50;34.60;;;;;;5108359;28;20250;-69
2023/06/05 12:44:07;;;;;;;2.67;2.53;;;35.50;32.80;;;;;;5111568;27;20197;-69
2023/06/05 12:46:35;;;;;;;3.03;2.83;;;35.80;33.40;;;;;;5115259;27;20273;-69
2023/06/05 12:49:02;;;;;;;2.63;2.43;;;35.70;33.20;;;;;;5112860;28;20300;-69
2023/06/05 12:51:31;;;;;;;2.67;2.47;;;35.70;33.00;;;;;;5105491;28;20224;-70
2023/06/05 12:53:59;;;;;;;3.87;2.90;;;35.10;33.40;;;;;;5114430;28;20268;-70